sensor_id;sensor_type;location;lat;lon;timestamp;pressure;altitude;pressure_sealevel;temperature;humidity
79144;BME280;68551;47.484;19.092;2023-04-29T00:01:25;100321.09;;;12.94;54.94
79144;BME280;68551;47.484;19.092;2023-04-29T00:04:29;100313.75;;;12.83;54.86
79144;BME280;68551;47.484;19.092;2023-04-29T00:07:36;100309.81;;;12.90;55.92
79144;BME280;68551;47.484;19.092;2023-04-29T00:10:45;100307.34;;;12.77;54.03
79144;BME280;68551;47.484;19.092;2023-04-29T00:13:48;100309.59;;;12.80;55.14
79144;BME280;68551;47.484;19.092;2023-04-29T00:16:55;100312.28;;;12.92;55.54
79144;BME280;68551;47.484;19.092;2023-04-29T00:20:03;100308.88;;;12.85;55.31
79144;BME280;68551;47.484;19.092;2023-04-29T00:23:10;100296.88;;;12.74;56.13
79144;BME280;68551;47.484;19.092;2023-04-29T00:26:13;100304.25;;;12.73;55.34
79144;BME280;68551;47.484;19.092;2023-04-29T00:29:20;100294.88;;;12.58;55.45
79144;BME280;68551;47.484;19.092;2023-04-29T00:32:29;100300.22;;;12.64;54.55
79144;BME280;68551;47.484;19.092;2023-04-29T00:35:31;100301.16;;;12.70;53.07
79144;BME280;68551;47.484;19.092;2023-04-29T00:38:34;100307.13;;;12.55;52.76
79144;BME280;68551;47.484;19.092;2023-04-29T00:41:38;100294.53;;;12.42;53.70
79144;BME280;68551;47.484;19.092;2023-04-29T00:44:43;100294.44;;;12.49;53.47
79144;BME280;68551;47.484;19.092;2023-04-29T00:47:53;100299.63;;;12.51;53.87
79144;BME280;68551;47.484;19.092;2023-04-29T00:50:58;100303.19;;;12.51;53.84
79144;BME280;68551;47.484;19.092;2023-04-29T00:54:03;100305.00;;;12.46;54.00
79144;BME280;68551;47.484;19.092;2023-04-29T00:57:07;100292.03;;;12.41;54.13
79144;BME280;68551;47.484;19.092;2023-04-29T01:00:10;100307.72;;;12.46;55.06
79144;BME280;68551;47.484;19.092;2023-04-29T01:03:15;100306.44;;;12.48;54.10
79144;BME280;68551;47.484;19.092;2023-04-29T01:09:58;100308.06;;;12.72;53.00
79144;BME280;68551;47.484;19.092;2023-04-29T01:13:21;100304.81;;;12.87;53.95
79144;BME280;68551;47.484;19.092;2023-04-29T01:16:39;100312.41;;;12.97;52.65
79144;BME280;68551;47.484;19.092;2023-04-29T01:19:54;100306.00;;;12.91;52.78
79144;BME280;68551;47.484;19.092;2023-04-29T01:23:01;100305.41;;;12.77;52.14
79144;BME280;68551;47.484;19.092;2023-04-29T01:26:03;100298.88;;;12.78;52.35
79144;BME280;68551;47.484;19.092;2023-04-29T01:29:34;100306.03;;;12.68;52.74
79144;BME280;68551;47.484;19.092;2023-04-29T01:32:57;100306.88;;;12.57;52.92
79144;BME280;68551;47.484;19.092;2023-04-29T01:39:36;100298.09;;;12.55;52.66
79144;BME280;68551;47.484;19.092;2023-04-29T01:45:55;100300.13;;;12.36;51.45
79144;BME280;68551;47.484;19.092;2023-04-29T01:48:58;100295.47;;;12.36;53.05
79144;BME280;68551;47.484;19.092;2023-04-29T01:52:01;100294.53;;;12.31;53.47
79144;BME280;68551;47.484;19.092;2023-04-29T01:55:07;100282.56;;;12.20;53.52
79144;BME280;68551;47.484;19.092;2023-04-29T01:58:20;100289.78;;;12.15;54.79
79144;BME280;68551;47.484;19.092;2023-04-29T02:01:34;100288.13;;;12.02;53.38
79144;BME280;68551;47.484;19.092;2023-04-29T02:04:36;100289.66;;;12.10;53.84
79144;BME280;68551;47.484;19.092;2023-04-29T02:07:42;100298.34;;;12.06;53.10
79144;BME280;68551;47.484;19.092;2023-04-29T02:10:55;100293.44;;;12.08;53.64
79144;BME280;68551;47.484;19.092;2023-04-29T02:14:20;100286.00;;;12.16;53.40
79144;BME280;68551;47.484;19.092;2023-04-29T02:17:27;100290.63;;;12.15;54.14
79144;BME280;68551;47.484;19.092;2023-04-29T02:20:29;100291.69;;;12.02;53.79
79144;BME280;68551;47.484;19.092;2023-04-29T02:23:34;100283.59;;;12.07;53.75
79144;BME280;68551;47.484;19.092;2023-04-29T02:26:39;100274.59;;;12.07;53.50
79144;BME280;68551;47.484;19.092;2023-04-29T02:29:44;100294.41;;;12.14;53.03
79144;BME280;68551;47.484;19.092;2023-04-29T02:32:49;100290.94;;;11.95;53.70
79144;BME280;68551;47.484;19.092;2023-04-29T02:35:51;100290.63;;;12.03;53.27
79144;BME280;68551;47.484;19.092;2023-04-29T02:38:53;100281.09;;;11.94;54.83
79144;BME280;68551;47.484;19.092;2023-04-29T02:41:59;100287.88;;;12.03;53.27
79144;BME280;68551;47.484;19.092;2023-04-29T02:45:02;100277.06;;;12.08;53.57
79144;BME280;68551;47.484;19.092;2023-04-29T02:48:10;100276.59;;;12.00;54.08
79144;BME280;68551;47.484;19.092;2023-04-29T02:51:12;100274.47;;;12.02;54.12
79144;BME280;68551;47.484;19.092;2023-04-29T02:54:15;100262.47;;;12.03;53.64
79144;BME280;68551;47.484;19.092;2023-04-29T02:57:20;100269.09;;;11.95;54.71
79144;BME280;68551;47.484;19.092;2023-04-29T03:00:23;100262.81;;;11.83;54.90
79144;BME280;68551;47.484;19.092;2023-04-29T03:03:25;100264.25;;;11.97;53.24
79144;BME280;68551;47.484;19.092;2023-04-29T03:06:30;100269.59;;;11.92;54.50
79144;BME280;68551;47.484;19.092;2023-04-29T03:09:33;100249.28;;;11.77;54.12
79144;BME280;68551;47.484;19.092;2023-04-29T03:12:38;100268.41;;;11.88;53.47
79144;BME280;68551;47.484;19.092;2023-04-29T03:15:42;100269.59;;;11.92;53.42
79144;BME280;68551;47.484;19.092;2023-04-29T03:18:45;100267.72;;;12.04;54.16
79144;BME280;68551;47.484;19.092;2023-04-29T03:21:50;100273.16;;;12.04;53.21
79144;BME280;68551;47.484;19.092;2023-04-29T03:24:57;100265.31;;;11.96;53.01
79144;BME280;68551;47.484;19.092;2023-04-29T03:28:00;100266.38;;;11.95;53.89
79144;BME280;68551;47.484;19.092;2023-04-29T03:31:04;100260.81;;;11.90;53.10
79144;BME280;68551;47.484;19.092;2023-04-29T03:34:06;100265.31;;;11.96;53.77
79144;BME280;68551;47.484;19.092;2023-04-29T03:37:14;100273.03;;;11.88;53.01
79144;BME280;68551;47.484;19.092;2023-04-29T03:40:21;100270.91;;;11.90;53.05
79144;BME280;68551;47.484;19.092;2023-04-29T03:43:27;100272.91;;;11.94;53.85
79144;BME280;68551;47.484;19.092;2023-04-29T03:46:32;100263.63;;;11.84;53.78
79144;BME280;68551;47.484;19.092;2023-04-29T03:49:36;100272.34;;;11.92;53.67
79144;BME280;68551;47.484;19.092;2023-04-29T03:52:41;100279.31;;;11.88;52.37
79144;BME280;68551;47.484;19.092;2023-04-29T03:55:49;100280.13;;;11.77;53.86
79144;BME280;68551;47.484;19.092;2023-04-29T03:58:56;100286.78;;;11.81;53.95
79144;BME280;68551;47.484;19.092;2023-04-29T04:02:01;100288.56;;;11.87;52.94
79144;BME280;68551;47.484;19.092;2023-04-29T04:05:03;100294.75;;;11.94;53.24
79144;BME280;68551;47.484;19.092;2023-04-29T04:08:08;100297.47;;;11.94;52.64
79144;BME280;68551;47.484;19.092;2023-04-29T04:11:41;100282.66;;;11.90;52.54
79144;BME280;68551;47.484;19.092;2023-04-29T04:14:43;100296.41;;;11.95;52.81
79144;BME280;68551;47.484;19.092;2023-04-29T04:17:48;100293.94;;;12.05;53.29
79144;BME280;68551;47.484;19.092;2023-04-29T04:20:55;100309.28;;;12.06;52.34
79144;BME280;68551;47.484;19.092;2023-04-29T04:23:59;100312.47;;;12.15;53.49
79144;BME280;68551;47.484;19.092;2023-04-29T04:27:06;100303.75;;;11.83;53.09
79144;BME280;68551;47.484;19.092;2023-04-29T04:30:14;100310.69;;;11.67;55.10
79144;BME280;68551;47.484;19.092;2023-04-29T04:33:21;100315.41;;;11.60;55.30
79144;BME280;68551;47.484;19.092;2023-04-29T04:36:26;100307.28;;;11.42;57.04
79144;BME280;68551;47.484;19.092;2023-04-29T04:39:29;100304.31;;;11.44;56.68
79144;BME280;68551;47.484;19.092;2023-04-29T04:42:32;100314.97;;;11.63;56.25
79144;BME280;68551;47.484;19.092;2023-04-29T04:45:37;100310.06;;;11.65;56.81
79144;BME280;68551;47.484;19.092;2023-04-29T04:48:40;100307.44;;;11.47;58.10
79144;BME280;68551;47.484;19.092;2023-04-29T04:51:44;100300.16;;;11.41;58.33
79144;BME280;68551;47.484;19.092;2023-04-29T04:54:56;100286.78;;;11.51;59.07
79144;BME280;68551;47.484;19.092;2023-04-29T04:58:01;100308.28;;;11.59;57.61
79144;BME280;68551;47.484;19.092;2023-04-29T05:01:03;100296.91;;;11.62;57.83
79144;BME280;68551;47.484;19.092;2023-04-29T05:04:08;100295.63;;;11.65;57.74
79144;BME280;68551;47.484;19.092;2023-04-29T05:07:16;100286.34;;;11.66;57.10
79144;BME280;68551;47.484;19.092;2023-04-29T05:10:36;100276.84;;;11.57;57.69
79144;BME280;68551;47.484;19.092;2023-04-29T05:13:45;100302.53;;;11.79;56.61
79144;BME280;68551;47.484;19.092;2023-04-29T05:16:48;100285.09;;;11.80;56.93
79144;BME280;68551;47.484;19.092;2023-04-29T05:19:50;100297.75;;;11.93;54.62
79144;BME280;68551;47.484;19.092;2023-04-29T05:22:53;100294.16;;;11.92;55.15
79144;BME280;68551;47.484;19.092;2023-04-29T05:25:59;100285.63;;;11.89;55.98
79144;BME280;68551;47.484;19.092;2023-04-29T05:29:04;100291.44;;;11.92;55.74
79144;BME280;68551;47.484;19.092;2023-04-29T05:32:13;100303.91;;;12.00;55.29
79144;BME280;68551;47.484;19.092;2023-04-29T05:35:16;100306.66;;;12.12;53.87
79144;BME280;68551;47.484;19.092;2023-04-29T05:38:21;100293.72;;;12.19;53.97
79144;BME280;68551;47.484;19.092;2023-04-29T05:41:48;100305.81;;;12.23;53.40
79144;BME280;68551;47.484;19.092;2023-04-29T05:44:59;100308.44;;;12.18;53.37
79144;BME280;68551;47.484;19.092;2023-04-29T05:48:06;100304.03;;;12.17;51.59
79144;BME280;68551;47.484;19.092;2023-04-29T05:51:12;100308.69;;;12.16;51.61
79144;BME280;68551;47.484;19.092;2023-04-29T05:54:17;100301.66;;;12.08;52.62
79144;BME280;68551;47.484;19.092;2023-04-29T05:57:20;100309.50;;;12.17;52.32
79144;BME280;68551;47.484;19.092;2023-04-29T06:00:23;100305.34;;;12.14;51.77
79144;BME280;68551;47.484;19.092;2023-04-29T06:03:31;100308.22;;;12.19;51.28
79144;BME280;68551;47.484;19.092;2023-04-29T06:06:56;100301.19;;;12.23;50.90
79144;BME280;68551;47.484;19.092;2023-04-29T06:10:19;100299.78;;;12.21;51.49
79144;BME280;68551;47.484;19.092;2023-04-29T06:13:23;100302.00;;;12.35;50.80
79144;BME280;68551;47.484;19.092;2023-04-29T06:16:27;100317.00;;;12.33;51.01
79144;BME280;68551;47.484;19.092;2023-04-29T06:19:29;100315.34;;;12.32;49.71
79144;BME280;68551;47.484;19.092;2023-04-29T06:22:35;100325.53;;;12.36;50.43
79144;BME280;68551;47.484;19.092;2023-04-29T06:25:39;100320.91;;;12.14;51.29
79144;BME280;68551;47.484;19.092;2023-04-29T06:28:48;100324.38;;;12.21;51.09
79144;BME280;68551;47.484;19.092;2023-04-29T06:31:50;100335.88;;;12.23;51.02
79144;BME280;68551;47.484;19.092;2023-04-29T06:34:53;100328.28;;;12.25;50.68
79144;BME280;68551;47.484;19.092;2023-04-29T06:38:18;100327.44;;;12.36;50.19
79144;BME280;68551;47.484;19.092;2023-04-29T06:41:29;100322.56;;;12.38;50.63
79144;BME280;68551;47.484;19.092;2023-04-29T06:44:36;100313.31;;;12.39;50.21
79144;BME280;68551;47.484;19.092;2023-04-29T06:47:57;100322.00;;;12.48;50.14
79144;BME280;68551;47.484;19.092;2023-04-29T06:51:14;100318.78;;;12.39;49.97
79144;BME280;68551;47.484;19.092;2023-04-29T06:54:19;100317.09;;;12.26;51.30
79144;BME280;68551;47.484;19.092;2023-04-29T06:57:26;100317.94;;;12.38;49.93
79144;BME280;68551;47.484;19.092;2023-04-29T07:00:29;100325.56;;;12.48;49.37
79144;BME280;68551;47.484;19.092;2023-04-29T07:03:31;100335.28;;;12.56;49.04
79144;BME280;68551;47.484;19.092;2023-04-29T07:06:34;100330.28;;;12.76;48.24
79144;BME280;68551;47.484;19.092;2023-04-29T07:09:36;100321.50;;;12.39;49.96
79144;BME280;68551;47.484;19.092;2023-04-29T07:12:38;100324.34;;;12.56;48.70
79144;BME280;68551;47.484;19.092;2023-04-29T07:15:47;100327.53;;;12.64;49.31
79144;BME280;68551;47.484;19.092;2023-04-29T07:18:54;100329.72;;;12.62;49.48
79144;BME280;68551;47.484;19.092;2023-04-29T07:21:59;100317.81;;;12.68;49.25
79144;BME280;68551;47.484;19.092;2023-04-29T07:25:05;100335.75;;;12.76;49.97
79144;BME280;68551;47.484;19.092;2023-04-29T07:28:07;100326.13;;;12.73;47.95
79144;BME280;68551;47.484;19.092;2023-04-29T07:31:10;100329.34;;;12.70;48.98
79144;BME280;68551;47.484;19.092;2023-04-29T07:34:18;100328.28;;;12.60;49.50
79144;BME280;68551;47.484;19.092;2023-04-29T07:37:23;100328.28;;;12.71;50.45
79144;BME280;68551;47.484;19.092;2023-04-29T07:40:26;100341.56;;;12.79;49.68
79144;BME280;68551;47.484;19.092;2023-04-29T07:43:32;100322.91;;;12.88;50.25
79144;BME280;68551;47.484;19.092;2023-04-29T07:46:36;100322.06;;;12.88;50.92
79144;BME280;68551;47.484;19.092;2023-04-29T07:49:39;100305.41;;;12.77;50.86
79144;BME280;68551;47.484;19.092;2023-04-29T07:52:45;100331.34;;;12.87;51.15
79144;BME280;68551;47.484;19.092;2023-04-29T07:55:50;100328.47;;;12.93;51.53
79144;BME280;68551;47.484;19.092;2023-04-29T07:58:58;100335.72;;;12.99;51.42
79144;BME280;68551;47.484;19.092;2023-04-29T08:02:01;100342.97;;;12.94;51.33
79144;BME280;68551;47.484;19.092;2023-04-29T08:05:03;100343.88;;;13.11;50.83
79144;BME280;68551;47.484;19.092;2023-04-29T08:08:09;100348.44;;;13.17;50.94
79144;BME280;68551;47.484;19.092;2023-04-29T08:11:20;100347.31;;;13.30;50.10
79144;BME280;68551;47.484;19.092;2023-04-29T08:14:25;100335.00;;;13.44;50.42
79144;BME280;68551;47.484;19.092;2023-04-29T08:17:34;100347.09;;;13.60;50.16
79144;BME280;68551;47.484;19.092;2023-04-29T08:20:38;100336.34;;;13.87;49.25
79144;BME280;68551;47.484;19.092;2023-04-29T08:23:45;100339.16;;;13.75;48.92
79144;BME280;68551;47.484;19.092;2023-04-29T08:26:48;100332.19;;;13.84;48.49
79144;BME280;68551;47.484;19.092;2023-04-29T08:29:56;100337.44;;;13.86;48.96
79144;BME280;68551;47.484;19.092;2023-04-29T08:33:00;100342.84;;;13.97;47.66
79144;BME280;68551;47.484;19.092;2023-04-29T08:36:03;100332.38;;;13.94;47.53
79144;BME280;68551;47.484;19.092;2023-04-29T08:39:05;100345.81;;;13.96;47.88
79144;BME280;68551;47.484;19.092;2023-04-29T08:42:10;100337.94;;;13.99;47.03
79144;BME280;68551;47.484;19.092;2023-04-29T08:45:18;100344.00;;;14.18;47.02
79144;BME280;68551;47.484;19.092;2023-04-29T08:48:21;100350.00;;;14.15;47.10
79144;BME280;68551;47.484;19.092;2023-04-29T08:51:24;100347.00;;;14.00;46.00
79144;BME280;68551;47.484;19.092;2023-04-29T08:54:27;100332.38;;;14.11;46.14
79144;BME280;68551;47.484;19.092;2023-04-29T08:57:35;100342.91;;;14.36;45.45
79144;BME280;68551;47.484;19.092;2023-04-29T09:00:46;100325.31;;;14.32;45.49
79144;BME280;68551;47.484;19.092;2023-04-29T09:03:54;100332.06;;;14.58;44.62
79144;BME280;68551;47.484;19.092;2023-04-29T09:07:03;100339.41;;;14.74;44.95
79144;BME280;68551;47.484;19.092;2023-04-29T09:10:07;100339.38;;;14.52;43.55
79144;BME280;68551;47.484;19.092;2023-04-29T09:13:26;100339.56;;;14.45;44.51
79144;BME280;68551;47.484;19.092;2023-04-29T09:16:31;100349.22;;;14.86;43.67
79144;BME280;68551;47.484;19.092;2023-04-29T09:19:36;100353.94;;;14.74;43.67
79144;BME280;68551;47.484;19.092;2023-04-29T09:22:47;100360.91;;;14.99;42.50
79144;BME280;68551;47.484;19.092;2023-04-29T09:25:56;100351.78;;;15.15;43.16
79144;BME280;68551;47.484;19.092;2023-04-29T09:32:18;100352.22;;;15.07;42.08
79144;BME280;68551;47.484;19.092;2023-04-29T09:35:25;100355.16;;;15.22;41.65
79144;BME280;68551;47.484;19.092;2023-04-29T09:38:30;100342.31;;;15.06;41.00
79144;BME280;68551;47.484;19.092;2023-04-29T09:41:32;100339.19;;;15.19;40.95
79144;BME280;68551;47.484;19.092;2023-04-29T09:44:40;100347.56;;;14.85;41.47
79144;BME280;68551;47.484;19.092;2023-04-29T09:47:42;100349.81;;;14.72;42.32
79144;BME280;68551;47.484;19.092;2023-04-29T09:50:59;100342.28;;;15.01;41.06
79144;BME280;68551;47.484;19.092;2023-04-29T09:54:19;100341.19;;;15.02;40.86
79144;BME280;68551;47.484;19.092;2023-04-29T09:57:38;100332.31;;;14.95;40.91
79144;BME280;68551;47.484;19.092;2023-04-29T10:00:44;100328.84;;;15.04;41.15
79144;BME280;68551;47.484;19.092;2023-04-29T10:03:49;100324.63;;;15.40;40.23
79144;BME280;68551;47.484;19.092;2023-04-29T10:06:55;100324.22;;;15.53;39.60
79144;BME280;68551;47.484;19.092;2023-04-29T10:10:01;100327.56;;;15.34;39.38
79144;BME280;68551;47.484;19.092;2023-04-29T10:13:06;100327.16;;;15.95;39.10
79144;BME280;68551;47.484;19.092;2023-04-29T10:25:48;100322.69;;;17.00;36.08
79144;BME280;68551;47.484;19.092;2023-04-29T10:28:57;100327.34;;;16.58;36.93
79144;BME280;68551;47.484;19.092;2023-04-29T10:32:06;100319.50;;;16.35;37.03
79144;BME280;68551;47.484;19.092;2023-04-29T10:35:14;100312.88;;;16.30;37.65
79144;BME280;68551;47.484;19.092;2023-04-29T10:38:38;100309.22;;;16.62;36.96
79144;BME280;68551;47.484;19.092;2023-04-29T10:41:44;100307.56;;;16.61;36.76
79144;BME280;68551;47.484;19.092;2023-04-29T10:48:25;100283.91;;;16.60;36.93
79144;BME280;68551;47.484;19.092;2023-04-29T10:51:39;100293.50;;;16.94;36.60
79144;BME280;68551;47.484;19.092;2023-04-29T10:55:01;100293.50;;;16.15;38.07
79144;BME280;68551;47.484;19.092;2023-04-29T10:58:21;100277.81;;;16.53;37.83
79144;BME280;68551;47.484;19.092;2023-04-29T11:08:13;100258.53;;;17.00;37.15
79144;BME280;68551;47.484;19.092;2023-04-29T11:11:25;100245.69;;;17.26;35.80
79144;BME280;68551;47.484;19.092;2023-04-29T11:17:41;100242.72;;;17.53;36.61
79144;BME280;68551;47.484;19.092;2023-04-29T11:24:07;100235.25;;;17.38;36.99
79144;BME280;68551;47.484;19.092;2023-04-29T11:27:10;100235.28;;;17.58;36.20
79144;BME280;68551;47.484;19.092;2023-04-29T11:30:14;100244.31;;;17.33;37.17
79144;BME280;68551;47.484;19.092;2023-04-29T11:33:20;100237.69;;;17.29;37.83
79144;BME280;68551;47.484;19.092;2023-04-29T11:36:24;100242.91;;;17.11;36.80
79144;BME280;68551;47.484;19.092;2023-04-29T11:39:26;100237.16;;;17.22;37.15
79144;BME280;68551;47.484;19.092;2023-04-29T11:42:35;100239.66;;;17.44;36.94
79144;BME280;68551;47.484;19.092;2023-04-29T11:45:47;100233.66;;;17.78;36.90
79144;BME280;68551;47.484;19.092;2023-04-29T11:48:56;100241.41;;;17.81;36.80
79144;BME280;68551;47.484;19.092;2023-04-29T11:52:03;100235.88;;;17.65;36.82
79144;BME280;68551;47.484;19.092;2023-04-29T11:55:11;100232.78;;;17.57;36.99
79144;BME280;68551;47.484;19.092;2023-04-29T11:58:14;100229.81;;;17.79;37.21
79144;BME280;68551;47.484;19.092;2023-04-29T12:01:20;100228.41;;;17.86;36.58
79144;BME280;68551;47.484;19.092;2023-04-29T12:04:23;100227.31;;;18.08;36.58
79144;BME280;68551;47.484;19.092;2023-04-29T12:07:26;100216.81;;;18.15;36.30
79144;BME280;68551;47.484;19.092;2023-04-29T12:10:29;100212.13;;;18.15;37.23
79144;BME280;68551;47.484;19.092;2023-04-29T12:13:33;100212.16;;;18.05;37.44
79144;BME280;68551;47.484;19.092;2023-04-29T12:16:38;100219.63;;;17.94;37.97
79144;BME280;68551;47.484;19.092;2023-04-29T12:19:43;100215.47;;;17.92;37.46
79144;BME280;68551;47.484;19.092;2023-04-29T12:22:46;100220.72;;;17.93;37.49
79144;BME280;68551;47.484;19.092;2023-04-29T12:25:55;100216.84;;;17.99;37.29
79144;BME280;68551;47.484;19.092;2023-04-29T12:29:00;100214.34;;;18.03;37.17
79144;BME280;68551;47.484;19.092;2023-04-29T12:32:02;100200.88;;;17.91;37.74
79144;BME280;68551;47.484;19.092;2023-04-29T12:35:13;100211.03;;;18.11;37.82
79144;BME280;68551;47.484;19.092;2023-04-29T12:38:27;100211.00;;;18.31;38.26
79144;BME280;68551;47.484;19.092;2023-04-29T12:41:40;100207.66;;;18.50;37.17
79144;BME280;68551;47.484;19.092;2023-04-29T12:44:49;100193.03;;;18.44;36.52
79144;BME280;68551;47.484;19.092;2023-04-29T12:47:51;100196.16;;;18.02;37.71
79144;BME280;68551;47.484;19.092;2023-04-29T12:50:59;100199.78;;;17.82;37.81
79144;BME280;68551;47.484;19.092;2023-04-29T12:54:03;100178.81;;;17.91;39.03
79144;BME280;68551;47.484;19.092;2023-04-29T12:57:05;100183.75;;;18.04;38.12
79144;BME280;68551;47.484;19.092;2023-04-29T13:00:11;100168.56;;;18.12;38.08
79144;BME280;68551;47.484;19.092;2023-04-29T13:03:13;100175.72;;;18.13;37.32
79144;BME280;68551;47.484;19.092;2023-04-29T13:06:16;100177.97;;;17.91;38.48
79144;BME280;68551;47.484;19.092;2023-04-29T13:09:21;100164.22;;;17.81;38.40
79144;BME280;68551;47.484;19.092;2023-04-29T13:12:23;100160.34;;;17.92;38.37
79144;BME280;68551;47.484;19.092;2023-04-29T13:15:26;100164.19;;;18.06;38.40
79144;BME280;68551;47.484;19.092;2023-04-29T13:18:28;100156.97;;;18.20;38.29
79144;BME280;68551;47.484;19.092;2023-04-29T13:21:32;100148.59;;;18.40;37.28
79144;BME280;68551;47.484;19.092;2023-04-29T13:24:34;100156.53;;;18.67;37.49
79144;BME280;68551;47.484;19.092;2023-04-29T13:27:39;100151.19;;;18.86;38.37
79144;BME280;68551;47.484;19.092;2023-04-29T13:30:45;100129.66;;;18.88;38.44
79144;BME280;68551;47.484;19.092;2023-04-29T13:33:54;100134.28;;;18.98;37.18
79144;BME280;68551;47.484;19.092;2023-04-29T13:36:56;100132.88;;;19.00;37.64
79144;BME280;68551;47.484;19.092;2023-04-29T13:39:59;100124.59;;;19.00;37.17
79144;BME280;68551;47.484;19.092;2023-04-29T13:43:03;100134.75;;;19.10;36.50
79144;BME280;68551;47.484;19.092;2023-04-29T13:46:12;100125.88;;;19.18;36.69
79144;BME280;68551;47.484;19.092;2023-04-29T13:49:18;100119.44;;;19.28;37.72
79144;BME280;68551;47.484;19.092;2023-04-29T13:52:43;100131.81;;;19.35;36.10
79144;BME280;68551;47.484;19.092;2023-04-29T13:55:48;100120.72;;;19.06;36.45
79144;BME280;68551;47.484;19.092;2023-04-29T13:59:10;100125.25;;;18.87;37.11
79144;BME280;68551;47.484;19.092;2023-04-29T14:02:15;100113.63;;;18.90;36.91
79144;BME280;68551;47.484;19.092;2023-04-29T14:05:26;100131.25;;;18.99;37.29
79144;BME280;68551;47.484;19.092;2023-04-29T14:08:28;100124.53;;;19.10;36.96
79144;BME280;68551;47.484;19.092;2023-04-29T14:11:30;100134.69;;;19.20;36.83
79144;BME280;68551;47.484;19.092;2023-04-29T14:14:37;100133.31;;;19.23;36.11
79144;BME280;68551;47.484;19.092;2023-04-29T14:17:42;100128.34;;;19.20;36.56
79144;BME280;68551;47.484;19.092;2023-04-29T14:20:45;100121.19;;;19.19;36.22
79144;BME280;68551;47.484;19.092;2023-04-29T14:23:49;100126.63;;;19.29;36.35
79144;BME280;68551;47.484;19.092;2023-04-29T14:26:59;100123.53;;;19.35;36.28
79144;BME280;68551;47.484;19.092;2023-04-29T14:30:03;100122.75;;;19.30;36.79
79144;BME280;68551;47.484;19.092;2023-04-29T14:33:06;100105.78;;;19.07;36.58
79144;BME280;68551;47.484;19.092;2023-04-29T14:36:09;100118.72;;;19.12;36.78
79144;BME280;68551;47.484;19.092;2023-04-29T14:39:11;100109.56;;;18.77;37.61
79144;BME280;68551;47.484;19.092;2023-04-29T14:42:15;100110.69;;;18.71;37.73
79144;BME280;68551;47.484;19.092;2023-04-29T14:45:19;100099.91;;;18.80;37.14
79144;BME280;68551;47.484;19.092;2023-04-29T14:48:24;100092.81;;;18.64;38.41
79144;BME280;68551;47.484;19.092;2023-04-29T14:51:32;100105.94;;;18.82;37.57
79144;BME280;68551;47.484;19.092;2023-04-29T14:54:36;100113.06;;;18.93;37.75
79144;BME280;68551;47.484;19.092;2023-04-29T14:57:46;100115.63;;;18.80;37.86
79144;BME280;68551;47.484;19.092;2023-04-29T15:00:54;100108.41;;;18.84;38.99
79144;BME280;68551;47.484;19.092;2023-04-29T15:03:59;100113.59;;;18.95;38.41
79144;BME280;68551;47.484;19.092;2023-04-29T15:07:02;100125.16;;;19.02;37.85
79144;BME280;68551;47.484;19.092;2023-04-29T15:10:07;100118.00;;;18.96;37.90
79144;BME280;68551;47.484;19.092;2023-04-29T15:13:10;100116.94;;;18.92;37.64
79144;BME280;68551;47.484;19.092;2023-04-29T15:16:13;100123.66;;;18.76;37.97
79144;BME280;68551;47.484;19.092;2023-04-29T15:19:18;100105.38;;;18.85;37.78
79144;BME280;68551;47.484;19.092;2023-04-29T15:22:21;100108.94;;;18.91;37.69
79144;BME280;68551;47.484;19.092;2023-04-29T15:25:28;100118.16;;;19.15;37.66
79144;BME280;68551;47.484;19.092;2023-04-29T15:28:31;100110.78;;;19.05;37.90
79144;BME280;68551;47.484;19.092;2023-04-29T15:31:35;100124.63;;;18.95;37.50
79144;BME280;68551;47.484;19.092;2023-04-29T15:34:37;100114.28;;;18.77;38.38
79144;BME280;68551;47.484;19.092;2023-04-29T15:37:44;100104.09;;;18.67;38.36
79144;BME280;68551;47.484;19.092;2023-04-29T15:40:49;100106.53;;;18.79;38.26
79144;BME280;68551;47.484;19.092;2023-04-29T15:43:58;100102.91;;;18.84;38.01
79144;BME280;68551;47.484;19.092;2023-04-29T15:47:00;100101.56;;;18.76;38.75
79144;BME280;68551;47.484;19.092;2023-04-29T15:50:05;100105.09;;;18.87;38.54
79144;BME280;68551;47.484;19.092;2023-04-29T15:53:13;100102.69;;;18.75;38.45
79144;BME280;68551;47.484;19.092;2023-04-29T15:56:16;100088.88;;;18.75;38.78
79144;BME280;68551;47.484;19.092;2023-04-29T15:59:23;100087.78;;;18.71;38.88
79144;BME280;68551;47.484;19.092;2023-04-29T16:02:25;100090.47;;;18.86;38.64
79144;BME280;68551;47.484;19.092;2023-04-29T16:05:30;100087.78;;;18.76;38.43
79144;BME280;68551;47.484;19.092;2023-04-29T16:08:35;100087.72;;;18.81;38.22
79144;BME280;68551;47.484;19.092;2023-04-29T16:11:40;100084.44;;;18.79;38.59
79144;BME280;68551;47.484;19.092;2023-04-29T16:14:42;100088.31;;;18.78;38.98
79144;BME280;68551;47.484;19.092;2023-04-29T16:17:45;100096.13;;;18.66;39.08
79144;BME280;68551;47.484;19.092;2023-04-29T16:20:47;100092.22;;;18.67;39.08
79144;BME280;68551;47.484;19.092;2023-04-29T16:23:50;100103.25;;;18.67;38.42
79144;BME280;68551;47.484;19.092;2023-04-29T16:26:52;100094.13;;;18.71;38.96
79144;BME280;68551;47.484;19.092;2023-04-29T16:29:55;100089.19;;;18.68;38.58
79144;BME280;68551;47.484;19.092;2023-04-29T16:32:58;100092.53;;;18.65;39.07
79144;BME280;68551;47.484;19.092;2023-04-29T16:36:03;100100.81;;;18.65;38.87
79144;BME280;68551;47.484;19.092;2023-04-29T16:39:06;100087.84;;;18.61;39.26
79144;BME280;68551;47.484;19.092;2023-04-29T16:42:09;100093.75;;;18.34;39.14